createdAt,value
2023-04-03T00:00:10.709Z,9.50
2023-04-03T00:02:12.625Z,9.40
2023-04-03T00:04:14.294Z,9.40
2023-04-03T00:06:16.041Z,9.40
2023-04-03T00:08:17.793Z,9.30
2023-04-03T00:10:19.577Z,9.30
2023-04-03T00:12:21.239Z,9.30
2023-04-03T00:14:22.966Z,9.20
2023-04-03T00:16:24.863Z,9.20
2023-04-03T00:18:26.532Z,9.10
2023-04-03T00:20:28.368Z,9.10
2023-04-03T00:22:30.045Z,9.00
2023-04-03T00:24:31.765Z,9.10
2023-04-03T00:26:33.400Z,9.00
2023-04-03T00:28:35.413Z,9.00
2023-04-03T00:30:37.465Z,9.00
2023-04-03T00:32:39.410Z,9.00
2023-04-03T00:34:41.047Z,9.00
2023-04-03T00:36:42.781Z,9.00
2023-04-03T00:38:44.574Z,9.00
2023-04-03T00:40:47.932Z,8.90
2023-04-03T00:42:49.993Z,8.90
2023-04-03T00:44:58.306Z,8.90
2023-04-03T00:47:00.387Z,8.90
2023-04-03T00:49:02.048Z,8.90
2023-04-03T00:51:04.876Z,8.90
2023-04-03T00:53:07.896Z,8.90
2023-04-03T00:55:09.815Z,8.90
2023-04-03T00:57:12.062Z,8.90
2023-04-03T00:59:22.166Z,8.90
2023-04-03T01:01:25.368Z,8.90
2023-04-03T01:03:27.241Z,8.90
2023-04-03T01:05:30.050Z,8.90
2023-04-03T01:07:32.498Z,8.90
2023-04-03T01:09:34.746Z,8.90
2023-04-03T01:11:36.434Z,8.80
2023-04-03T01:13:38.251Z,8.90
2023-04-03T01:15:41.874Z,8.80
2023-04-03T01:17:43.601Z,8.80
2023-04-03T01:19:48.735Z,8.80
2023-04-03T01:22:05.627Z,8.80
2023-04-03T01:24:12.647Z,8.80
2023-04-03T01:26:14.660Z,8.80
2023-04-03T01:28:18.156Z,8.80
2023-04-03T01:30:21.877Z,8.80
2023-04-03T01:32:23.520Z,8.80
2023-04-03T01:34:25.932Z,8.80
2023-04-03T01:36:30.211Z,8.80
2023-04-03T01:38:32.525Z,8.70
2023-04-03T01:40:34.373Z,8.70
2023-04-03T01:42:36.383Z,8.70
2023-04-03T01:44:38.035Z,8.70
2023-04-03T01:46:39.906Z,8.70
2023-04-03T01:48:41.672Z,8.70
2023-04-03T01:50:43.421Z,8.60
2023-04-03T01:52:45.355Z,8.60
2023-04-03T01:54:46.989Z,8.60
2023-04-03T01:56:48.625Z,8.60
2023-04-03T01:58:50.490Z,8.60
2023-04-03T02:00:52.970Z,8.60
2023-04-03T02:02:54.774Z,8.50
2023-04-03T02:04:56.444Z,8.50
2023-04-03T02:06:58.188Z,8.50
2023-04-03T02:09:00.376Z,8.50
2023-04-03T02:11:02.202Z,8.50
2023-04-03T02:13:04.016Z,8.50
2023-04-03T02:15:06.192Z,8.40
2023-04-03T02:17:09.660Z,8.40
2023-04-03T02:19:11.406Z,8.50
2023-04-03T02:21:13.105Z,8.40
2023-04-03T02:23:14.892Z,8.40
2023-04-03T02:25:16.589Z,8.40
2023-04-03T02:27:18.333Z,8.40
2023-04-03T02:29:20.204Z,8.40
2023-04-03T02:31:22.111Z,8.40
2023-04-03T02:33:24.101Z,8.40
2023-04-03T02:35:26.305Z,8.30
2023-04-03T02:37:29.857Z,8.30
2023-04-03T02:39:31.765Z,8.30
2023-04-03T02:41:36.504Z,8.30
2023-04-03T02:43:41.594Z,8.30
2023-04-03T02:45:43.605Z,8.20
2023-04-03T02:47:45.600Z,8.20
2023-04-03T02:49:47.268Z,8.20
2023-04-03T02:51:48.919Z,8.20
2023-04-03T02:53:51.128Z,8.10
2023-04-03T02:55:56.953Z,8.10
2023-04-03T02:57:58.686Z,8.10
2023-04-03T03:00:00.618Z,8.10
2023-04-03T03:02:02.418Z,8.10
2023-04-03T03:04:04.230Z,8.10
2023-04-03T03:06:07.697Z,8.00
2023-04-03T03:08:09.455Z,8.00
2023-04-03T03:10:11.188Z,8.00
2023-04-03T03:12:12.918Z,8.00
2023-04-03T03:14:14.579Z,8.00
2023-04-03T03:16:16.370Z,8.00
2023-04-03T03:18:18.149Z,8.00
2023-04-03T03:20:19.753Z,7.90
2023-04-03T03:22:21.503Z,7.90
2023-04-03T03:24:23.140Z,7.90
2023-04-03T03:26:25.099Z,7.90
2023-04-03T03:28:26.749Z,7.90
2023-04-03T03:30:28.448Z,7.90
2023-04-03T03:32:30.445Z,7.90
2023-04-03T03:34:32.217Z,7.90
2023-04-03T03:36:34.721Z,7.90
2023-04-03T03:38:37.765Z,7.90
2023-04-03T03:40:39.468Z,7.90
2023-04-03T03:42:41.824Z,7.90
2023-04-03T03:44:43.579Z,7.90
2023-04-03T03:46:45.328Z,7.90
2023-04-03T03:48:47.237Z,7.90
2023-04-03T03:50:49.220Z,7.90
2023-04-03T03:52:52.148Z,7.90
2023-04-03T03:54:53.834Z,7.90
2023-04-03T03:56:56.506Z,7.90
2023-04-03T03:58:59.928Z,7.90
2023-04-03T04:01:02.933Z,7.90
2023-04-03T04:03:04.826Z,7.90
2023-04-03T04:05:07.205Z,8.00
2023-04-03T04:07:08.900Z,7.90
2023-04-03T04:09:10.850Z,8.00
2023-04-03T04:11:12.656Z,8.00
2023-04-03T04:13:15.812Z,8.00
2023-04-03T04:15:17.573Z,8.00
2023-04-03T04:17:19.177Z,8.00
2023-04-03T04:19:20.947Z,8.00
2023-04-03T04:21:24.374Z,8.00
2023-04-03T04:23:28.178Z,8.00
2023-04-03T04:25:30.380Z,8.00
2023-04-03T04:27:32.190Z,8.00
2023-04-03T04:29:36.755Z,8.00
2023-04-03T04:31:39.589Z,8.00
2023-04-03T04:33:41.813Z,8.00
2023-04-03T04:35:47.908Z,8.00
2023-04-03T04:37:49.747Z,8.00
2023-04-03T04:39:52.213Z,8.00
2023-04-03T04:41:53.999Z,8.00
2023-04-03T04:43:56.078Z,8.00
2023-04-03T04:46:09.668Z,8.00
2023-04-03T04:48:17.020Z,8.00
2023-04-03T04:50:18.973Z,8.10
2023-04-03T04:52:21.028Z,8.00
2023-04-03T04:54:22.846Z,8.00
2023-04-03T04:56:24.949Z,8.00
2023-04-03T04:58:26.842Z,8.00
2023-04-03T05:00:28.665Z,8.00
2023-04-03T05:02:31.760Z,8.00
2023-04-03T05:04:34.264Z,8.00
2023-04-03T05:06:41.640Z,8.00
2023-04-03T05:08:48.759Z,8.00
2023-04-03T05:10:50.696Z,8.00
2023-04-03T05:12:53.356Z,8.00
2023-04-03T05:14:55.350Z,8.00
2023-04-03T05:16:57.077Z,8.00
2023-04-03T05:19:01.813Z,8.00
2023-04-03T05:21:04.467Z,8.00
2023-04-03T05:23:06.509Z,7.90
2023-04-03T05:25:10.294Z,8.00
2023-04-03T05:27:13.253Z,8.00
2023-04-03T05:29:19.066Z,8.00
2023-04-03T05:31:22.612Z,8.00
2023-04-03T05:33:25.326Z,8.00
2023-04-03T05:35:28.695Z,8.00
2023-04-03T05:37:34.076Z,8.00
2023-04-03T05:39:36.111Z,8.00
2023-04-03T05:41:39.557Z,8.00
2023-04-03T05:43:41.228Z,8.00
2023-04-03T05:45:46.281Z,8.00
2023-04-03T05:47:49.266Z,8.00
2023-04-03T05:49:50.972Z,8.00
2023-04-03T05:51:53.477Z,8.00
2023-04-03T05:54:18.357Z,8.00
2023-04-03T05:56:21.090Z,8.00
2023-04-03T05:58:23.248Z,8.00
2023-04-03T06:00:28.681Z,8.00
2023-04-03T06:02:36.629Z,8.00
2023-04-03T06:04:38.433Z,8.00
2023-04-03T06:06:49.585Z,8.00
2023-04-03T06:08:51.332Z,7.90
2023-04-03T06:10:53.340Z,8.00
2023-04-03T06:12:55.036Z,8.00
2023-04-03T06:14:56.750Z,8.00
2023-04-03T06:16:58.528Z,8.00
2023-04-03T06:19:00.619Z,8.00
2023-04-03T06:21:03.745Z,8.00
2023-04-03T06:23:07.285Z,8.00
2023-04-03T06:25:10.993Z,8.00
2023-04-03T06:27:13.293Z,8.00
2023-04-03T06:29:14.926Z,8.00
2023-04-03T06:31:17.487Z,8.10
2023-04-03T06:33:19.153Z,8.10
2023-04-03T06:35:21.862Z,8.10
2023-04-03T06:37:23.894Z,8.10
2023-04-03T06:39:25.767Z,8.10
2023-04-03T06:41:27.575Z,8.10
2023-04-03T06:43:29.407Z,8.10
2023-04-03T06:45:31.113Z,8.20
2023-04-03T06:47:32.816Z,8.10
2023-04-03T06:49:34.560Z,8.10
2023-04-03T06:51:37.212Z,8.20
2023-04-03T06:53:38.891Z,8.20
2023-04-03T06:55:40.878Z,8.20
2023-04-03T06:57:42.656Z,8.20
2023-04-03T06:59:44.453Z,8.20
2023-04-03T07:01:46.932Z,8.20
2023-04-03T07:03:51.963Z,8.20
2023-04-03T07:05:53.695Z,8.20
2023-04-03T07:07:55.382Z,8.20
2023-04-03T07:09:57.046Z,8.20
2023-04-03T07:11:58.789Z,8.10
2023-04-03T07:14:00.443Z,8.10
2023-04-03T07:16:03.086Z,8.20
2023-04-03T07:18:06.989Z,8.20
2023-04-03T07:20:09.200Z,8.10
2023-04-03T07:22:12.015Z,8.10
2023-04-03T07:24:16.220Z,8.10
2023-04-03T07:26:18.887Z,8.20
2023-04-03T07:28:21.460Z,8.10
2023-04-03T07:30:23.154Z,8.20
2023-04-03T07:32:24.810Z,8.20
2023-04-03T07:34:26.535Z,8.20
2023-04-03T07:36:28.704Z,8.20
2023-04-03T07:38:30.405Z,8.20
2023-04-03T07:40:32.230Z,8.20
2023-04-03T07:42:33.918Z,8.20
2023-04-03T07:44:36.445Z,8.20
2023-04-03T07:46:38.886Z,8.30
2023-04-03T07:48:40.756Z,8.30
2023-04-03T07:50:42.605Z,8.30
2023-04-03T07:52:44.765Z,8.30
2023-04-03T07:54:46.583Z,8.40
2023-04-03T07:56:49.172Z,8.40
2023-04-03T07:58:51.021Z,8.40
2023-04-03T08:00:52.963Z,8.40
2023-04-03T08:02:54.686Z,8.40
2023-04-03T08:04:56.505Z,8.50
2023-04-03T08:06:58.318Z,8.50
2023-04-03T08:09:00.123Z,8.50
2023-04-03T08:11:03.418Z,8.50
2023-04-03T08:13:05.569Z,8.50
2023-04-03T08:15:09.178Z,8.50
2023-04-03T08:17:12.701Z,8.60
2023-04-03T08:19:22.518Z,8.60
2023-04-03T08:21:27.712Z,8.60
2023-04-03T08:23:29.401Z,8.70
2023-04-03T08:25:31.788Z,8.70
2023-04-03T08:27:36.503Z,8.70
2023-04-03T08:29:38.709Z,8.80
2023-04-03T08:31:40.441Z,8.80
2023-04-03T08:33:42.497Z,8.90
2023-04-03T08:35:44.712Z,8.90
2023-04-03T08:37:46.884Z,8.90
2023-04-03T08:39:48.793Z,8.90
2023-04-03T08:41:50.511Z,9.00
2023-04-03T08:44:10.379Z,9.00
2023-04-03T08:46:14.677Z,9.10
2023-04-03T08:48:36.646Z,9.10
2023-04-03T08:50:42.829Z,9.20
2023-04-03T08:52:56.767Z,9.20
2023-04-03T08:55:00.779Z,9.30
2023-04-03T08:57:03.613Z,9.30
2023-04-03T08:59:08.157Z,9.40
2023-04-03T09:01:19.575Z,9.40
2023-04-03T09:03:22.571Z,9.40
2023-04-03T09:05:40.425Z,9.50
2023-04-03T09:07:51.536Z,9.50
2023-04-03T09:09:54.188Z,9.50
2023-04-03T09:11:58.588Z,9.60
2023-04-03T09:14:00.641Z,9.60
2023-04-03T09:16:03.455Z,9.70
2023-04-03T09:18:17.796Z,9.70
2023-04-03T09:20:28.813Z,9.70
2023-04-03T09:22:36.466Z,9.70
2023-04-03T09:24:41.279Z,9.70
2023-04-03T09:26:54.529Z,9.80
2023-04-03T09:28:58.448Z,9.80
2023-04-03T09:31:01.209Z,9.80
2023-04-03T09:33:03.033Z,9.80
2023-04-03T09:35:32.969Z,9.90
2023-04-03T09:37:47.876Z,9.90
2023-04-03T09:39:54.771Z,9.90
2023-04-03T09:41:56.532Z,10.00
2023-04-03T09:43:58.282Z,10.00
2023-04-03T09:46:35.887Z,10.00
2023-04-03T09:48:37.643Z,10.10
2023-04-03T09:51:02.385Z,10.10
2023-04-03T09:53:06.842Z,10.20
2023-04-03T09:55:09.567Z,10.20
2023-04-03T09:57:13.095Z,10.20
2023-04-03T09:59:16.765Z,10.20
2023-04-03T10:01:23.691Z,10.30
2023-04-03T10:03:34.670Z,10.30
2023-04-03T10:05:41.165Z,10.40
2023-04-03T10:07:48.680Z,10.40
2023-04-03T10:09:57.611Z,10.40
2023-04-03T10:11:59.716Z,10.40
2023-04-03T10:14:02.384Z,10.50
2023-04-03T10:16:04.137Z,10.50
2023-04-03T10:18:21.565Z,10.50
2023-04-03T10:20:45.122Z,10.60
2023-04-03T10:22:58.845Z,10.60
2023-04-03T10:25:24.365Z,10.70
2023-04-03T10:27:26.078Z,10.70
2023-04-03T10:29:27.857Z,10.80
2023-04-03T10:31:35.875Z,10.90
2023-04-03T10:33:46.924Z,10.90
2023-04-03T10:36:10.182Z,11.00
2023-04-03T10:38:24.978Z,11.00
2023-04-03T10:40:26.625Z,11.10
2023-04-03T10:42:34.683Z,11.20
2023-04-03T10:44:36.405Z,11.20
2023-04-03T10:46:41.787Z,11.30
2023-04-03T10:49:16.233Z,11.30
2023-04-03T10:51:20.946Z,11.40
2023-04-03T10:53:41.583Z,11.40
2023-04-03T10:55:46.294Z,11.40
2023-04-03T10:57:48.679Z,11.40
2023-04-03T10:59:50.344Z,11.40
2023-04-03T11:01:54.779Z,11.50
2023-04-03T11:03:59.193Z,11.50
2023-04-03T11:06:02.598Z,11.50
2023-04-03T11:08:09.083Z,11.60
2023-04-03T11:10:15.808Z,11.60
2023-04-03T11:12:37.389Z,11.70
2023-04-03T11:14:39.447Z,11.70
2023-04-03T11:16:50.836Z,11.70
2023-04-03T11:19:12.448Z,11.70
2023-04-03T11:21:20.316Z,11.80
2023-04-03T11:23:49.976Z,11.80
2023-04-03T11:25:54.116Z,11.80
2023-04-03T11:27:57.622Z,11.80
2023-04-03T11:29:59.793Z,11.90
2023-04-03T11:32:04.308Z,11.90
2023-04-03T11:34:14.623Z,11.90
2023-04-03T11:36:30.807Z,11.90
2023-04-03T11:38:40.473Z,11.90
2023-04-03T11:40:44.926Z,11.90
2023-04-03T11:42:47.838Z,11.90
2023-04-03T11:44:49.578Z,12.00
2023-04-03T11:46:54.288Z,11.90
2023-04-03T11:49:00.783Z,11.90
2023-04-03T11:51:11.488Z,12.00
2023-04-03T11:53:13.201Z,11.90
2023-04-03T11:55:23.916Z,12.00
2023-04-03T11:57:44.478Z,12.00
2023-04-03T11:59:46.227Z,12.00
2023-04-03T12:01:51.015Z,12.00
2023-04-03T12:03:53.037Z,12.00
2023-04-03T12:06:15.113Z,12.00
2023-04-03T12:08:26.462Z,12.00
2023-04-03T12:10:32.162Z,12.00
2023-04-03T12:12:36.591Z,11.90
2023-04-03T12:14:38.347Z,11.90
2023-04-03T12:16:40.049Z,11.90
2023-04-03T12:18:54.828Z,11.90
2023-04-03T12:20:57.421Z,11.90
2023-04-03T12:23:18.072Z,11.90
2023-04-03T12:25:48.662Z,12.00
2023-04-03T12:27:52.827Z,12.10
2023-04-03T12:29:57.941Z,12.10
2023-04-03T12:32:11.883Z,12.20
2023-04-03T12:34:25.451Z,12.20
2023-04-03T12:36:31.842Z,12.20
2023-04-03T12:38:50.485Z,12.30
2023-04-03T12:40:58.343Z,12.30
2023-04-03T12:43:05.257Z,12.40
2023-04-03T12:45:14.217Z,12.40
2023-04-03T12:47:37.216Z,12.40
2023-04-03T12:49:43.721Z,12.40
2023-04-03T12:51:46.470Z,12.40
2023-04-03T12:53:49.761Z,12.40
2023-04-03T12:55:55.461Z,12.50
2023-04-03T12:57:57.166Z,12.50
2023-04-03T12:59:59.119Z,12.50
2023-04-03T13:02:01.899Z,12.50
2023-04-03T13:04:05.100Z,12.50
2023-04-03T13:06:06.924Z,12.60
2023-04-03T13:08:11.708Z,12.60
2023-04-03T13:10:13.590Z,12.70
2023-04-03T13:12:16.967Z,12.80
2023-04-03T13:14:20.932Z,12.90
2023-04-03T13:16:22.801Z,13.00
2023-04-03T13:18:30.813Z,13.10
2023-04-03T13:20:34.206Z,13.20
2023-04-03T13:22:40.219Z,13.30
2023-04-03T13:24:42.478Z,13.40
2023-04-03T13:26:44.384Z,13.50
2023-04-03T13:28:46.840Z,13.60
2023-04-03T13:30:57.377Z,13.60
2023-04-03T13:33:01.099Z,13.70
2023-04-03T13:35:17.680Z,13.70
2023-04-03T13:37:30.777Z,13.70
2023-04-03T13:39:33.738Z,13.70
2023-04-03T13:41:37.159Z,13.80
2023-04-03T13:43:39.292Z,13.90
2023-04-03T13:45:54.090Z,13.90
2023-04-03T13:48:23.210Z,14.00
2023-04-03T13:50:27.144Z,14.10
2023-04-03T13:52:36.910Z,14.20
2023-04-03T13:54:39.719Z,14.20
2023-04-03T13:56:43.118Z,14.20
2023-04-03T13:58:53.727Z,14.30
2023-04-03T14:01:01.501Z,14.40
2023-04-03T14:03:04.185Z,14.40
2023-04-03T14:05:10.747Z,14.50
2023-04-03T14:07:14.234Z,14.60
2023-04-03T14:09:16.883Z,14.70
2023-04-03T14:11:19.840Z,14.70
2023-04-03T14:13:21.917Z,14.80
2023-04-03T14:15:26.070Z,14.80
2023-04-03T14:17:28.898Z,14.80
2023-04-03T14:19:36.444Z,14.80
2023-04-03T14:21:38.225Z,14.80
2023-04-03T14:23:40.306Z,14.70
2023-04-03T14:25:42.715Z,14.70
2023-04-03T14:27:46.373Z,14.70
2023-04-03T14:29:49.449Z,14.70
2023-04-03T14:31:57.820Z,14.70
2023-04-03T14:34:05.859Z,14.70
2023-04-03T14:36:14.990Z,14.80
2023-04-03T14:38:22.799Z,14.80
2023-04-03T14:40:26.374Z,14.90
2023-04-03T14:42:30.527Z,14.90
2023-04-03T14:44:32.354Z,15.00
2023-04-03T14:46:54.336Z,15.10
2023-04-03T14:48:56.859Z,15.10
2023-04-03T14:51:05.664Z,15.20
2023-04-03T14:53:08.709Z,15.30
2023-04-03T14:55:12.659Z,15.40
2023-04-03T14:57:15.560Z,15.40
2023-04-03T14:59:18.538Z,15.50
2023-04-03T15:01:20.485Z,15.50
2023-04-03T15:03:22.808Z,15.60
2023-04-03T15:05:24.719Z,15.60
2023-04-03T15:07:28.628Z,15.60
2023-04-03T15:09:30.380Z,15.60
2023-04-03T15:11:32.177Z,15.70
2023-04-03T15:13:33.909Z,15.70
2023-04-03T15:15:36.884Z,15.80
2023-04-03T15:17:39.000Z,15.80
2023-04-03T15:19:41.288Z,15.90
2023-04-03T15:21:43.053Z,15.90
2023-04-03T15:23:44.844Z,16.00
2023-04-03T15:25:47.882Z,16.00
2023-04-03T15:27:49.762Z,16.10
2023-04-03T15:29:51.619Z,16.20
2023-04-03T15:31:54.457Z,16.20
2023-04-03T15:33:56.926Z,16.20
2023-04-03T15:36:06.770Z,16.20
2023-04-03T15:38:09.540Z,16.20
2023-04-03T15:40:11.522Z,16.20
2023-04-03T15:42:13.601Z,16.20
2023-04-03T15:44:18.457Z,16.20
2023-04-03T15:46:20.400Z,16.30
2023-04-03T15:48:22.151Z,16.30
2023-04-03T15:50:24.986Z,16.40
2023-04-03T15:52:26.748Z,16.40
2023-04-03T15:54:30.390Z,16.50
2023-04-03T15:56:32.129Z,16.50
2023-04-03T15:58:33.844Z,16.60
2023-04-03T16:00:36.419Z,16.60
2023-04-03T16:02:38.378Z,16.60
2023-04-03T16:04:40.363Z,16.60
2023-04-03T16:06:42.293Z,16.60
2023-04-03T16:08:44.038Z,16.60
2023-04-03T16:10:48.775Z,16.50
2023-04-03T16:12:50.628Z,16.50
2023-04-03T16:14:52.741Z,16.40
2023-04-03T16:16:54.688Z,16.30
2023-04-03T16:18:56.681Z,16.20
2023-04-03T16:20:58.586Z,16.20
2023-04-03T16:23:00.932Z,16.10
2023-04-03T16:25:02.938Z,16.00
2023-04-03T16:27:04.990Z,15.80
2023-04-03T16:29:06.750Z,15.70
2023-04-03T16:31:08.658Z,15.60
2023-04-03T16:33:11.475Z,15.50
2023-04-03T16:35:13.482Z,15.40
2023-04-03T16:37:15.864Z,15.20
2023-04-03T16:39:17.571Z,15.10
2023-04-03T16:41:19.322Z,15.00
2023-04-03T16:43:21.123Z,14.90
2023-04-03T16:45:23.021Z,14.80
2023-04-03T16:47:24.734Z,14.70
2023-04-03T16:49:27.104Z,14.50
2023-04-03T16:51:28.977Z,14.40
2023-04-03T16:53:30.726Z,14.30
2023-04-03T16:55:32.689Z,14.30
2023-04-03T16:57:34.464Z,14.20
2023-04-03T16:59:36.287Z,14.10
2023-04-03T17:01:37.951Z,14.00
2023-04-03T17:03:40.358Z,14.00
2023-04-03T17:05:42.215Z,13.90
2023-04-03T17:07:43.870Z,13.80
2023-04-03T17:09:45.835Z,13.80
2023-04-03T17:11:49.232Z,13.70
2023-04-03T17:13:51.241Z,13.60
2023-04-03T17:15:53.114Z,13.60
2023-04-03T17:17:55.011Z,13.50
2023-04-03T17:19:56.849Z,13.50
2023-04-03T17:21:58.892Z,13.40
2023-04-03T17:24:02.835Z,13.40
2023-04-03T17:26:04.947Z,13.30
2023-04-03T17:28:06.612Z,13.20
2023-04-03T17:30:08.716Z,13.20
2023-04-03T17:32:10.661Z,13.10
2023-04-03T17:34:12.775Z,13.10
2023-04-03T17:36:14.615Z,13.00
2023-04-03T17:38:16.425Z,13.00
2023-04-03T17:40:18.795Z,13.00
2023-04-03T17:42:21.358Z,13.00
2023-04-03T17:44:23.325Z,12.90
2023-04-03T17:46:25.591Z,12.90
2023-04-03T17:48:27.907Z,12.80
2023-04-03T17:50:30.104Z,12.80
2023-04-03T17:52:32.214Z,12.80
2023-04-03T17:54:33.918Z,12.70
2023-04-03T17:56:35.789Z,12.70
2023-04-03T17:58:37.621Z,12.70
2023-04-03T18:00:39.565Z,12.60
2023-04-03T18:02:42.341Z,12.60
2023-04-03T18:04:44.240Z,12.50
2023-04-03T18:06:48.265Z,12.50
2023-04-03T18:08:51.076Z,12.40
2023-04-03T18:10:53.250Z,12.40
2023-04-03T18:12:55.087Z,12.40
2023-04-03T18:14:57.902Z,12.30
2023-04-03T18:16:59.775Z,12.30
2023-04-03T18:19:21.091Z,12.30
2023-04-03T18:21:23.358Z,12.20
2023-04-03T18:23:26.230Z,12.20
2023-04-03T18:25:28.066Z,12.20
2023-04-03T18:27:29.855Z,12.10
2023-04-03T18:29:33.855Z,12.10
2023-04-03T18:31:37.221Z,12.00
2023-04-03T18:33:39.024Z,12.00
2023-04-03T18:35:41.097Z,12.00
2023-04-03T18:37:43.113Z,12.00
2023-04-03T18:39:44.907Z,11.90
2023-04-03T18:41:46.866Z,11.90
2023-04-03T18:43:48.818Z,11.80
2023-04-03T18:45:50.790Z,11.80
2023-04-03T18:47:52.720Z,11.70
2023-04-03T18:49:54.553Z,11.70
2023-04-03T18:51:56.272Z,11.70
2023-04-03T18:53:58.084Z,11.60
2023-04-03T18:55:59.846Z,11.60
2023-04-03T18:58:01.540Z,11.50
2023-04-03T19:00:04.838Z,11.50
2023-04-03T19:02:07.681Z,11.50
2023-04-03T19:04:09.475Z,11.40
2023-04-03T19:06:11.298Z,11.40
2023-04-03T19:08:13.550Z,11.30
2023-04-03T19:10:19.965Z,11.30
2023-04-03T19:12:21.791Z,11.30
2023-04-03T19:14:23.533Z,11.30
2023-04-03T19:16:25.590Z,11.20
2023-04-03T19:18:27.865Z,11.20
2023-04-03T19:20:29.744Z,11.20
2023-04-03T19:22:31.599Z,11.10
2023-04-03T19:24:33.664Z,11.10
2023-04-03T19:26:35.431Z,11.00
2023-04-03T19:28:38.381Z,11.00
2023-04-03T19:30:40.923Z,11.00
2023-04-03T19:32:42.876Z,10.90
2023-04-03T19:34:44.692Z,10.90
2023-04-03T19:36:46.568Z,10.90
2023-04-03T19:38:48.259Z,10.80
2023-04-03T19:40:50.089Z,10.80
2023-04-03T19:42:52.497Z,10.80
2023-04-03T19:44:54.409Z,10.70
2023-04-03T19:46:56.362Z,10.70
2023-04-03T19:48:58.867Z,10.60
2023-04-03T19:51:00.703Z,10.60
2023-04-03T19:53:02.685Z,10.60
2023-04-03T19:55:04.651Z,10.50
2023-04-03T19:57:07.084Z,10.50
2023-04-03T19:59:08.899Z,10.50
2023-04-03T20:01:14.096Z,10.40
2023-04-03T20:03:16.243Z,10.40
2023-04-03T20:05:18.069Z,10.40
2023-04-03T20:07:19.919Z,10.40
2023-04-03T20:09:22.333Z,10.30
2023-04-03T20:11:24.280Z,10.30
2023-04-03T20:13:26.383Z,10.30
2023-04-03T20:15:29.486Z,10.30
2023-04-03T20:17:33.369Z,10.20
2023-04-03T20:19:35.345Z,10.20
2023-04-03T20:21:37.176Z,10.20
2023-04-03T20:23:39.023Z,10.10
2023-04-03T20:25:50.601Z,10.00
2023-04-03T20:27:56.152Z,10.10
2023-04-03T20:29:57.905Z,10.00
2023-04-03T20:31:59.852Z,10.00
2023-04-03T20:34:02.066Z,10.00
2023-04-03T20:36:04.412Z,10.00
2023-04-03T20:38:07.215Z,9.90
2023-04-03T20:40:09.603Z,9.90
2023-04-03T20:42:11.382Z,9.90
2023-04-03T20:44:13.165Z,9.90
2023-04-03T20:46:19.389Z,9.90
2023-04-03T20:48:21.556Z,9.90
2023-04-03T20:50:23.439Z,9.90
2023-04-03T20:52:25.168Z,9.90
2023-04-03T20:54:26.872Z,9.80
2023-04-03T20:56:35.040Z,9.80
2023-04-03T20:58:38.790Z,9.80
2023-04-03T21:00:40.924Z,9.80
2023-04-03T21:02:42.869Z,9.80
2023-04-03T21:04:47.389Z,9.70
2023-04-03T21:07:08.397Z,9.70
2023-04-03T21:09:28.936Z,9.70
2023-04-03T21:11:49.512Z,9.70
2023-04-03T21:14:09.725Z,9.70
2023-04-03T21:16:11.910Z,9.60
2023-04-03T21:18:14.025Z,9.60
2023-04-03T21:20:15.736Z,9.60
2023-04-03T21:22:17.519Z,9.60
2023-04-03T21:24:19.357Z,9.50
2023-04-03T21:26:21.818Z,9.50
2023-04-03T21:28:24.664Z,9.50
2023-04-03T21:30:26.367Z,9.40
2023-04-03T21:32:28.044Z,9.40
2023-04-03T21:34:30.448Z,9.40
2023-04-03T21:36:39.488Z,9.40
2023-04-03T21:38:41.288Z,9.40
2023-04-03T21:40:46.520Z,9.40
2023-04-03T21:42:53.218Z,9.40
2023-04-03T21:44:54.861Z,9.30
2023-04-03T21:46:56.605Z,9.30
2023-04-03T21:48:58.632Z,9.30
2023-04-03T21:51:04.211Z,9.30
2023-04-03T21:53:06.004Z,9.20
2023-04-03T21:55:08.554Z,9.20
2023-04-03T21:57:11.690Z,9.20
2023-04-03T21:59:13.707Z,9.20
2023-04-03T22:01:16.260Z,9.20
2023-04-03T22:03:22.032Z,9.10
2023-04-03T22:05:23.686Z,9.10
2023-04-03T22:07:25.540Z,9.10
2023-04-03T22:09:27.350Z,9.10
2023-04-03T22:11:29.358Z,9.10
2023-04-03T22:13:31.440Z,9.00
2023-04-03T22:15:42.349Z,9.00
2023-04-03T22:17:44.700Z,9.00
2023-04-03T22:19:46.928Z,9.00
2023-04-03T22:21:48.608Z,9.00
2023-04-03T22:23:50.590Z,9.00
2023-04-03T22:26:01.552Z,9.00
2023-04-03T22:28:03.236Z,9.00
2023-04-03T22:30:05.808Z,8.90
2023-04-03T22:32:07.504Z,8.90
2023-04-03T22:34:09.329Z,8.90
2023-04-03T22:36:11.722Z,8.90
2023-04-03T22:38:14.778Z,8.80
2023-04-03T22:40:16.708Z,8.80
2023-04-03T22:42:18.389Z,8.80
2023-04-03T22:44:20.042Z,8.80
2023-04-03T22:46:21.719Z,8.70
2023-04-03T22:48:24.030Z,8.70
2023-04-03T22:50:25.774Z,8.70
2023-04-03T22:52:27.453Z,8.60
2023-04-03T22:54:29.060Z,8.60
2023-04-03T22:56:30.752Z,8.60
2023-04-03T22:58:32.462Z,8.60
2023-04-03T23:00:34.160Z,8.60
2023-04-03T23:02:36.084Z,8.50
2023-04-03T23:04:37.967Z,8.50
2023-04-03T23:06:39.762Z,8.50
2023-04-03T23:08:42.425Z,8.40
2023-04-03T23:10:44.204Z,8.40
2023-04-03T23:12:45.853Z,8.40
2023-04-03T23:14:47.471Z,8.40
2023-04-03T23:16:49.212Z,8.40
2023-04-03T23:18:51.145Z,8.40
2023-04-03T23:20:54.608Z,8.30
2023-04-03T23:22:56.473Z,8.30
2023-04-03T23:24:58.140Z,8.30
2023-04-03T23:26:59.819Z,8.30
2023-04-03T23:29:01.501Z,8.30
2023-04-03T23:31:05.490Z,8.30
2023-04-03T23:33:07.251Z,8.30
2023-04-03T23:35:09.102Z,8.30
2023-04-03T23:37:13.573Z,8.30
2023-04-03T23:39:15.320Z,8.30
2023-04-03T23:41:17.214Z,8.30
2023-04-03T23:43:18.930Z,8.30
2023-04-03T23:45:20.590Z,8.30
2023-04-03T23:47:22.218Z,8.30
2023-04-03T23:49:23.858Z,8.30
2023-04-03T23:51:25.715Z,8.20
2023-04-03T23:53:28.253Z,8.20
2023-04-03T23:55:29.946Z,8.30
2023-04-03T23:57:31.579Z,8.20
2023-04-03T23:59:33.375Z,8.20
